Time;durP1;ratioP1;P1;durP2;ratioP2;P2;SDS_P1;SDS_P2;PMS_P1;PMS_P2;Temp;Humidity;BMP_temperature;BMP_pressure;BME280_temperature;BME280_humidity;BME280_pressure;Samples;Min_cycle;Max_cycle;Signal;HPM_P1;HPM_P2
2022/05/31 00:01:28;;;;;;;0.22;0.10;;;;;;;;;;5027627;28;20054;-61
2022/05/31 00:03:54;;;;;;;0.00;0.00;;;;;;;;;;5030197;28;20493;-60
2022/05/31 00:06:21;;;;;;;0.00;0.00;;;;;;;;;;5020277;28;20575;-60
2022/05/31 00:08:48;;;;;;;0.00;0.00;;;;;;;;;;5021727;28;20100;-61
2022/05/31 00:11:14;;;;;;;0.00;0.00;;;;;;;;;;5029368;28;20058;-60
2022/05/31 00:13:40;;;;;;;0.00;0.00;;;;;;;;;;5017491;28;20062;-60
2022/05/31 00:16:07;;;;;;;0.00;0.00;;;;;;;;;;5029627;28;20567;-60
2022/05/31 00:18:33;;;;;;;0.00;0.00;;;;;;;;;;5022817;28;20104;-61
2022/05/31 00:21:00;;;;;;;0.00;0.00;;;;;;;;;;5028473;28;20050;-60
2022/05/31 00:23:26;;;;;;;0.00;0.00;;;;;;;;;;5015930;28;20054;-61
2022/05/31 00:25:52;;;;;;;0.00;0.00;;;;;;;;;;5010258;28;20058;-60
2022/05/31 00:28:19;;;;;;;0.00;0.00;;;;;;;;;;5014717;28;20112;-61
2022/05/31 00:30:46;;;;;;;0.00;0.00;;;;;;;;;;5020162;28;20054;-61
2022/05/31 00:33:12;;;;;;;0.00;0.00;;;;;;;;;;5008747;28;20064;-61
2022/05/31 00:35:40;;;;;;;0.00;0.00;;;;;;;;;;5020448;28;20054;-61
2022/05/31 00:38:08;;;;;;;0.00;0.00;;;;;;;;;;5011095;28;20497;-60
2022/05/31 00:40:35;;;;;;;0.00;0.00;;;;;;;;;;5009320;28;20058;-60
2022/05/31 00:43:03;;;;;;;0.00;0.00;;;;;;;;;;5010187;28;20117;-61
2022/05/31 00:45:34;;;;;;;0.00;0.00;;;;;;;;;;5019228;28;20488;-60
2022/05/31 00:48:00;;;;;;;0.00;0.00;;;;;;;;;;5020937;28;20050;-60
2022/05/31 00:50:29;;;;;;;0.00;0.00;;;;;;;;;;5027583;28;20148;-60
2022/05/31 00:52:58;;;;;;;0.00;0.00;;;;;;;;;;5010476;28;20113;-60
2022/05/31 00:55:31;;;;;;;0.00;0.00;;;;;;;;;;5016619;28;20606;-60
2022/05/31 00:58:00;;;;;;;0.00;0.00;;;;;;;;;;5026594;28;20058;-60
2022/05/31 01:00:27;;;;;;;0.00;0.00;;;;;;;;;;5022866;28;20078;-61
2022/05/31 01:02:54;;;;;;;0.00;0.00;;;;;;;;;;5024335;28;20093;-60
2022/05/31 01:05:21;;;;;;;0.00;0.00;;;;;;;;;;5022494;28;20213;-60
2022/05/31 01:07:47;;;;;;;0.00;0.00;;;;;;;;;;5008603;28;20063;-60
2022/05/31 01:10:15;;;;;;;0.00;0.00;;;;;;;;;;5025540;28;20062;-60
2022/05/31 01:12:43;;;;;;;0.00;0.00;;;;;;;;;;5009288;28;20051;-60
2022/05/31 01:15:11;;;;;;;0.00;0.00;;;;;;;;;;5008694;28;20509;-60
2022/05/31 01:17:39;;;;;;;0.00;0.00;;;;;;;;;;5008615;28;20907;-61
2022/05/31 01:20:06;;;;;;;;;;;;;;;;;;5009045;28;20059;-61
2022/05/31 01:22:40;;;;;;;0.00;0.00;;;;;;;;;;5006660;28;46320;-60
2022/05/31 01:25:13;;;;;;;0.00;0.00;;;;;;;;;;5008434;28;20054;-61
2022/05/31 01:27:39;;;;;;;0.00;0.00;;;;;;;;;;5007690;28;20194;-61
2022/05/31 01:30:06;;;;;;;0.00;0.00;;;;;;;;;;5008350;28;20132;-60
2022/05/31 01:32:39;;;;;;;0.00;0.00;;;;;;;;;;5015062;28;20113;-61
2022/05/31 01:35:11;;;;;;;0.00;0.00;;;;;;;;;;5008657;28;20109;-60
2022/05/31 01:37:49;;;;;;;0.00;0.00;;;;;;;;;;5010918;28;20538;-60
2022/05/31 01:40:35;;;;;;;0.00;0.00;;;;;;;;;;5011376;28;20912;-61
2022/05/31 01:43:02;;;;;;;0.00;0.00;;;;;;;;;;5027560;28;20093;-60
2022/05/31 01:45:32;;;;;;;0.00;0.00;;;;;;;;;;5028469;28;20128;-61
2022/05/31 01:48:00;;;;;;;0.00;0.00;;;;;;;;;;5020644;28;20055;-60
2022/05/31 01:50:26;;;;;;;0.00;0.00;;;;;;;;;;5008462;28;20066;-61
2022/05/31 01:52:54;;;;;;;0.00;0.00;;;;;;;;;;5020467;28;20085;-61
2022/05/31 01:55:21;;;;;;;0.00;0.00;;;;;;;;;;5027175;28;20092;-60
2022/05/31 01:57:49;;;;;;;0.00;0.00;;;;;;;;;;5027229;28;20501;-61
2022/05/31 02:00:16;;;;;;;;;;;;;;;;;;5028148;28;20050;-61
2022/05/31 02:02:47;;;;;;;1.15;0.93;;;;;;;;;;5027089;28;44858;-60
2022/05/31 02:05:13;;;;;;;0.00;0.00;;;;;;;;;;5028125;28;20503;-61
2022/05/31 02:07:40;;;;;;;0.00;0.00;;;;;;;;;;5022635;28;20086;-61
2022/05/31 02:10:06;;;;;;;0.00;0.00;;;;;;;;;;5008817;28;20596;-60
2022/05/31 02:12:33;;;;;;;0.00;0.00;;;;;;;;;;5028164;28;20046;-60
2022/05/31 02:14:59;;;;;;;0.00;0.00;;;;;;;;;;5013752;28;20086;-61
2022/05/31 02:17:26;;;;;;;0.00;0.00;;;;;;;;;;5010388;28;20054;-61
2022/05/31 02:19:52;;;;;;;0.00;0.00;;;;;;;;;;5030372;28;20135;-60
2022/05/31 02:22:20;;;;;;;0.00;0.00;;;;;;;;;;5031722;28;20140;-60
2022/05/31 02:24:46;;;;;;;0.00;0.00;;;;;;;;;;5019145;28;20153;-60
2022/05/31 02:27:14;;;;;;;0.00;0.00;;;;;;;;;;5013349;28;20486;-61
2022/05/31 02:29:41;;;;;;;0.00;0.00;;;;;;;;;;5030762;28;20054;-61
2022/05/31 02:32:08;;;;;;;0.00;0.00;;;;;;;;;;5015906;28;20055;-61
2022/05/31 02:34:36;;;;;;;0.00;0.00;;;;;;;;;;5011604;28;20055;-61
2022/05/31 02:37:03;;;;;;;0.00;0.00;;;;;;;;;;5017764;28;20101;-61
2022/05/31 02:39:29;;;;;;;0.00;0.00;;;;;;;;;;5030213;28;20322;-61
2022/05/31 02:41:56;;;;;;;0.00;0.00;;;;;;;;;;5031325;28;20054;-60
2022/05/31 02:44:23;;;;;;;0.00;0.00;;;;;;;;;;5029968;28;20116;-61
2022/05/31 02:46:49;;;;;;;0.00;0.00;;;;;;;;;;5025434;28;20058;-60
2022/05/31 02:49:16;;;;;;;0.00;0.00;;;;;;;;;;5027924;28;20144;-60
2022/05/31 02:51:43;;;;;;;0.00;0.00;;;;;;;;;;5030396;28;20056;-60
2022/05/31 02:54:10;;;;;;;0.00;0.00;;;;;;;;;;5028395;28;20050;-60
2022/05/31 02:56:38;;;;;;;0.00;0.00;;;;;;;;;;5028231;28;20117;-60
2022/05/31 02:59:05;;;;;;;0.00;0.00;;;;;;;;;;5012029;28;20061;-60
2022/05/31 03:01:34;;;;;;;0.00;0.00;;;;;;;;;;5021576;28;20054;-60
2022/05/31 03:04:00;;;;;;;0.00;0.00;;;;;;;;;;5026940;28;20092;-59
2022/05/31 03:06:27;;;;;;;0.00;0.00;;;;;;;;;;5026692;28;20988;-60
2022/05/31 03:08:53;;;;;;;0.00;0.00;;;;;;;;;;5011520;28;20133;-60
2022/05/31 03:11:22;;;;;;;0.00;0.00;;;;;;;;;;5018262;28;20050;-60
2022/05/31 03:13:50;;;;;;;0.00;0.00;;;;;;;;;;5027409;28;20078;-60
2022/05/31 03:16:17;;;;;;;0.00;0.00;;;;;;;;;;5031299;28;20062;-60
2022/05/31 03:18:47;;;;;;;0.00;0.00;;;;;;;;;;5011497;28;20058;-60
2022/05/31 03:21:18;;;;;;;0.00;0.00;;;;;;;;;;5017172;28;20088;-60
2022/05/31 03:23:47;;;;;;;0.00;0.00;;;;;;;;;;5027709;28;20053;-60
2022/05/31 03:26:16;;;;;;;0.00;0.00;;;;;;;;;;5030844;28;20140;-60
2022/05/31 03:28:42;;;;;;;0.00;0.00;;;;;;;;;;5028665;28;20137;-60
2022/05/31 03:31:09;;;;;;;0.00;0.00;;;;;;;;;;5028277;28;20120;-60
2022/05/31 03:33:35;;;;;;;0.00;0.00;;;;;;;;;;5029321;28;20068;-60
2022/05/31 03:36:02;;;;;;;0.00;0.00;;;;;;;;;;5011042;28;20062;-60
2022/05/31 03:38:28;;;;;;;0.00;0.00;;;;;;;;;;5026122;28;20053;-60
2022/05/31 03:40:58;;;;;;;0.00;0.00;;;;;;;;;;5029747;28;20078;-60
2022/05/31 03:43:26;;;;;;;0.00;0.00;;;;;;;;;;5028189;28;20057;-60
2022/05/31 03:45:52;;;;;;;0.00;0.00;;;;;;;;;;5011503;28;20050;-60
2022/05/31 03:48:19;;;;;;;0.00;0.00;;;;;;;;;;5028621;28;20555;-60
2022/05/31 03:50:45;;;;;;;0.00;0.00;;;;;;;;;;5028422;28;20128;-60
2022/05/31 03:53:13;;;;;;;0.00;0.00;;;;;;;;;;5023646;28;20113;-60
2022/05/31 03:55:44;;;;;;;0.00;0.00;;;;;;;;;;5021496;28;20112;-60
2022/05/31 03:58:10;;;;;;;0.00;0.00;;;;;;;;;;5010636;28;20436;-60
2022/05/31 04:00:37;;;;;;;0.00;0.00;;;;;;;;;;5010817;28;20085;-60
2022/05/31 04:03:03;;;;;;;0.00;0.00;;;;;;;;;;5012228;28;20456;-60
2022/05/31 04:05:30;;;;;;;0.00;0.00;;;;;;;;;;5013750;28;20541;-60
2022/05/31 04:08:02;;;;;;;0.00;0.00;;;;;;;;;;5009939;28;20933;-60
2022/05/31 04:10:29;;;;;;;0.00;0.00;;;;;;;;;;5024623;28;20104;-60
2022/05/31 04:12:56;;;;;;;0.00;0.00;;;;;;;;;;5028565;28;20108;-60
2022/05/31 04:15:22;;;;;;;0.00;0.00;;;;;;;;;;5027316;28;20097;-60
2022/05/31 04:17:48;;;;;;;0.00;0.00;;;;;;;;;;5012708;28;20599;-60
2022/05/31 04:20:15;;;;;;;0.00;0.00;;;;;;;;;;5017778;28;20089;-60
2022/05/31 04:22:41;;;;;;;0.00;0.00;;;;;;;;;;5030010;28;20941;-60
2022/05/31 04:25:08;;;;;;;0.00;0.00;;;;;;;;;;5028130;28;20054;-60
2022/05/31 04:27:34;;;;;;;0.00;0.00;;;;;;;;;;5015311;28;20156;-60
2022/05/31 04:30:00;;;;;;;0.00;0.00;;;;;;;;;;5018116;28;20089;-60
2022/05/31 04:32:27;;;;;;;0.00;0.00;;;;;;;;;;5028764;28;20049;-60
2022/05/31 04:34:53;;;;;;;0.00;0.00;;;;;;;;;;5009907;28;20122;-60
2022/05/31 04:37:20;;;;;;;0.00;0.00;;;;;;;;;;5021699;28;20050;-60
2022/05/31 04:39:47;;;;;;;0.00;0.00;;;;;;;;;;5027463;28;20642;-60
2022/05/31 04:42:19;;;;;;;0.00;0.00;;;;;;;;;;5028317;28;20054;-60
2022/05/31 04:44:45;;;;;;;0.00;0.00;;;;;;;;;;5010923;28;20082;-60
2022/05/31 04:47:11;;;;;;;0.00;0.00;;;;;;;;;;5009764;28;20054;-60
2022/05/31 04:49:38;;;;;;;0.00;0.00;;;;;;;;;;5008934;28;20444;-60
2022/05/31 04:52:04;;;;;;;0.00;0.00;;;;;;;;;;5013303;28;20502;-60
2022/05/31 04:54:32;;;;;;;0.00;0.00;;;;;;;;;;5009921;28;20153;-60
2022/05/31 04:57:01;;;;;;;0.00;0.00;;;;;;;;;;5009424;28;20058;-60
2022/05/31 04:59:27;;;;;;;0.00;0.00;;;;;;;;;;5010162;28;20105;-60
2022/05/31 05:01:54;;;;;;;0.00;0.00;;;;;;;;;;5019611;28;20113;-60
2022/05/31 05:04:20;;;;;;;0.00;0.00;;;;;;;;;;5015996;28;20064;-60
2022/05/31 05:06:47;;;;;;;0.00;0.00;;;;;;;;;;5008425;28;20513;-60
2022/05/31 05:09:13;;;;;;;0.00;0.00;;;;;;;;;;5009317;28;20054;-60
2022/05/31 05:11:40;;;;;;;0.00;0.00;;;;;;;;;;5019395;28;20109;-60
2022/05/31 05:14:07;;;;;;;0.00;0.00;;;;;;;;;;5008997;28;20086;-60
2022/05/31 05:16:33;;;;;;;0.00;0.00;;;;;;;;;;5020043;28;20050;-60
2022/05/31 05:18:59;;;;;;;0.00;0.00;;;;;;;;;;5009312;28;20073;-60
2022/05/31 05:21:26;;;;;;;0.00;0.00;;;;;;;;;;5015610;28;20873;-60
2022/05/31 05:23:52;;;;;;;0.00;0.00;;;;;;;;;;5008400;28;20185;-60
2022/05/31 05:26:19;;;;;;;0.00;0.00;;;;;;;;;;5007420;28;20105;-60
2022/05/31 05:31:33;;;;;;;0.00;0.00;;;;;;;;;;5006394;28;20054;-60
2022/05/31 05:34:00;;;;;;;;;;;;;;;;;;5011388;28;20101;-61
2022/05/31 05:36:26;;;;;;;0.00;0.00;;;;;;;;;;5019144;28;43984;-60
2022/05/31 05:38:53;;;;;;;0.00;0.00;;;;;;;;;;5016936;28;20082;-60
2022/05/31 05:41:20;;;;;;;0.00;0.00;;;;;;;;;;5014800;28;20572;-60
2022/05/31 05:43:47;;;;;;;0.00;0.00;;;;;;;;;;5017834;28;20106;-60
2022/05/31 05:46:24;;;;;;;0.00;0.00;;;;;;;;;;5016721;28;20108;-60
2022/05/31 05:48:51;;;;;;;0.00;0.00;;;;;;;;;;5014334;28;20610;-60
2022/05/31 05:51:22;;;;;;;0.00;0.00;;;;;;;;;;5009262;28;20728;-60
2022/05/31 05:53:49;;;;;;;0.00;0.00;;;;;;;;;;5007546;28;20508;-60
2022/05/31 05:56:15;;;;;;;0.00;0.00;;;;;;;;;;5024078;28;20058;-60
2022/05/31 05:58:42;;;;;;;0.00;0.00;;;;;;;;;;5015486;28;20074;-60
2022/05/31 06:01:11;;;;;;;0.00;0.00;;;;;;;;;;5017760;28;20503;-60
2022/05/31 06:03:43;;;;;;;0.00;0.00;;;;;;;;;;5015209;28;20113;-60
2022/05/31 06:06:10;;;;;;;0.00;0.00;;;;;;;;;;5022189;28;20054;-60
2022/05/31 06:08:40;;;;;;;0.00;0.00;;;;;;;;;;5024337;28;20077;-60
2022/05/31 06:11:07;;;;;;;0.00;0.00;;;;;;;;;;5013304;28;20140;-60
2022/05/31 06:13:43;;;;;;;0.00;0.00;;;;;;;;;;5022863;28;20146;-60
2022/05/31 06:16:09;;;;;;;0.00;0.00;;;;;;;;;;5014793;28;20109;-61
2022/05/31 06:18:39;;;;;;;0.00;0.00;;;;;;;;;;5018917;28;20572;-60
2022/05/31 06:21:07;;;;;;;0.00;0.00;;;;;;;;;;5013953;28;20054;-60
2022/05/31 06:23:37;;;;;;;0.00;0.00;;;;;;;;;;5013926;28;20062;-60
2022/05/31 06:26:03;;;;;;;0.00;0.00;;;;;;;;;;5013347;28;20124;-60
2022/05/31 06:28:30;;;;;;;0.00;0.00;;;;;;;;;;5016025;28;20506;-60
2022/05/31 06:30:56;;;;;;;0.00;0.00;;;;;;;;;;5006811;28;20058;-60
2022/05/31 06:33:22;;;;;;;0.00;0.00;;;;;;;;;;5013041;28;20105;-60
2022/05/31 06:35:49;;;;;;;0.00;0.00;;;;;;;;;;5016072;28;20170;-61
2022/05/31 06:38:17;;;;;;;0.00;0.00;;;;;;;;;;5005576;28;20054;-60
2022/05/31 06:40:44;;;;;;;0.00;0.00;;;;;;;;;;5021086;28;20065;-60
2022/05/31 06:43:10;;;;;;;0.00;0.00;;;;;;;;;;5005880;28;20992;-60
2022/05/31 06:45:44;;;;;;;0.00;0.00;;;;;;;;;;5014026;28;20101;-61
2022/05/31 06:48:10;;;;;;;0.00;0.00;;;;;;;;;;5022848;28;20058;-61
2022/05/31 06:50:37;;;;;;;0.00;0.00;;;;;;;;;;5016105;28;20112;-62
2022/05/31 06:58:41;;;;;;;0.00;0.00;;;;;;;;;;5012415;28;20611;-62
2022/05/31 07:01:07;;;;;;;0.00;0.00;;;;;;;;;;5018275;28;20113;-59
2022/05/31 07:03:33;;;;;;;0.00;0.00;;;;;;;;;;5007815;28;20054;-59
2022/05/31 07:06:00;;;;;;;0.00;0.00;;;;;;;;;;5015116;28;20136;-59
2022/05/31 07:08:26;;;;;;;0.00;0.00;;;;;;;;;;5010870;28;20136;-59
2022/05/31 07:10:56;;;;;;;0.00;0.00;;;;;;;;;;5010934;28;20046;-59
2022/05/31 07:13:23;;;;;;;0.00;0.00;;;;;;;;;;5011706;28;20086;-59
2022/05/31 07:15:51;;;;;;;0.00;0.00;;;;;;;;;;5016215;28;20053;-58
2022/05/31 07:18:37;;;;;;;0.00;0.00;;;;;;;;;;5029067;28;20513;-58
2022/05/31 07:21:03;;;;;;;0.00;0.00;;;;;;;;;;5014443;28;20062;-59
2022/05/31 07:23:30;;;;;;;0.00;0.00;;;;;;;;;;5014194;28;20128;-59
2022/05/31 07:25:58;;;;;;;0.40;0.30;;;;;;;;;;5007815;28;20137;-59
2022/05/31 07:28:44;;;;;;;0.00;0.00;;;;;;;;;;5013903;28;20058;-59
2022/05/31 07:31:11;;;;;;;0.00;0.00;;;;;;;;;;5017229;28;20505;-59
2022/05/31 07:33:38;;;;;;;0.10;0.10;;;;;;;;;;5019691;28;20161;-59
2022/05/31 07:36:07;;;;;;;0.00;0.00;;;;;;;;;;5015205;28;20062;-59
2022/05/31 07:38:34;;;;;;;0.00;0.00;;;;;;;;;;5017845;28;20085;-59
2022/05/31 07:41:00;;;;;;;0.00;0.00;;;;;;;;;;5020205;28;20108;-59
2022/05/31 07:43:27;;;;;;;0.00;0.00;;;;;;;;;;5019680;28;20077;-59
2022/05/31 07:46:05;;;;;;;0.00;0.00;;;;;;;;;;5014718;28;20058;-59
2022/05/31 07:48:35;;;;;;;0.22;0.20;;;;;;;;;;5013405;28;20054;-59
2022/05/31 07:51:02;;;;;;;0.00;0.00;;;;;;;;;;5016570;28;20050;-59
2022/05/31 07:53:28;;;;;;;0.22;0.22;;;;;;;;;;5024767;28;20085;-58
2022/05/31 07:55:59;;;;;;;0.10;0.00;;;;;;;;;;5018795;28;20200;-62
2022/05/31 07:58:32;;;;;;;0.00;0.00;;;;;;;;;;5022299;28;20417;-62
2022/05/31 08:01:04;;;;;;;0.00;0.00;;;;;;;;;;5014969;28;20492;-62
2022/05/31 08:03:30;;;;;;;0.00;0.00;;;;;;;;;;5024034;28;20057;-62
2022/05/31 08:05:57;;;;;;;0.00;0.00;;;;;;;;;;5024655;28;20424;-63
2022/05/31 08:08:24;;;;;;;1.45;1.38;;;;;;;;;;5016507;28;20054;-62
2022/05/31 08:11:07;;;;;;;0.00;0.00;;;;;;;;;;5016732;28;20058;-63
2022/05/31 08:13:33;;;;;;;0.00;0.00;;;;;;;;;;5009737;28;20050;-62
2022/05/31 08:16:00;;;;;;;0.10;0.10;;;;;;;;;;5010389;28;20109;-62
2022/05/31 08:18:27;;;;;;;0.25;0.10;;;;;;;;;;5010113;28;20066;-62
2022/05/31 08:23:58;;;;;;;0.03;0.03;;;;;;;;;;5029214;28;20054;-62
2022/05/31 08:26:25;;;;;;;0.00;0.00;;;;;;;;;;5016623;28;20061;-62
2022/05/31 08:28:51;;;;;;;0.05;0.05;;;;;;;;;;5025879;28;20090;-63
2022/05/31 08:31:26;;;;;;;0.00;0.00;;;;;;;;;;5023402;28;20108;-63
2022/05/31 08:33:54;;;;;;;0.00;0.00;;;;;;;;;;5020188;28;20054;-62
2022/05/31 08:36:20;;;;;;;0.00;0.00;;;;;;;;;;5016849;28;20062;-61
2022/05/31 08:38:47;;;;;;;0.00;0.00;;;;;;;;;;5011490;28;20042;-62
2022/05/31 08:41:22;;;;;;;0.00;0.00;;;;;;;;;;5022153;28;20049;-63
2022/05/31 08:43:50;;;;;;;0.10;0.10;;;;;;;;;;5021672;28;20097;-63
2022/05/31 08:46:22;;;;;;;0.08;0.08;;;;;;;;;;5010451;28;20108;-65
2022/05/31 08:48:57;;;;;;;0.47;0.25;;;;;;;;;;5010842;28;20058;-62
2022/05/31 08:51:53;;;;;;;0.00;0.00;;;;;;;;;;5008036;28;20050;-62
2022/05/31 08:57:20;;;;;;;0.00;0.00;;;;;;;;;;5013652;28;20062;-64
2022/05/31 08:59:49;;;;;;;0.00;0.00;;;;;;;;;;5026938;28;20131;-63
2022/05/31 09:02:22;;;;;;;0.00;0.00;;;;;;;;;;5028827;28;20074;-63
2022/05/31 09:05:04;;;;;;;;;;;;;;;;;;5029242;28;20058;-63
2022/05/31 09:07:38;;;;;;;0.00;0.00;;;;;;;;;;5023058;28;43646;-63
2022/05/31 09:10:25;;;;;;;0.10;0.10;;;;;;;;;;5026202;28;20058;-64
2022/05/31 09:12:54;;;;;;;0.00;0.00;;;;;;;;;;5024501;28;20053;-63
2022/05/31 09:15:24;;;;;;;0.00;0.00;;;;;;;;;;5027999;28;20427;-60
2022/05/31 09:18:07;;;;;;;0.00;0.00;;;;;;;;;;5009098;28;20105;-61
2022/05/31 09:20:36;;;;;;;0.00;0.00;;;;;;;;;;5011764;28;20105;-60
2022/05/31 09:23:02;;;;;;;0.00;0.00;;;;;;;;;;5023805;28;20149;-60
2022/05/31 09:25:34;;;;;;;0.00;0.00;;;;;;;;;;5014412;28;20085;-61
2022/05/31 09:28:04;;;;;;;0.00;0.00;;;;;;;;;;5029345;28;20050;-60
2022/05/31 09:30:40;;;;;;;0.00;0.00;;;;;;;;;;5010383;28;20119;-61
2022/05/31 09:33:12;;;;;;;0.10;0.10;;;;;;;;;;5027207;28;20492;-61
2022/05/31 09:36:03;;;;;;;0.00;0.00;;;;;;;;;;5009887;28;20610;-60
2022/05/31 09:38:42;;;;;;;0.00;0.00;;;;;;;;;;5008322;28;20054;-60
2022/05/31 09:41:12;;;;;;;0.00;0.00;;;;;;;;;;5010892;28;20133;-61
2022/05/31 09:43:56;;;;;;;0.00;0.00;;;;;;;;;;5026282;28;20505;-61
2022/05/31 09:46:35;;;;;;;0.00;0.00;;;;;;;;;;5029080;28;20136;-60
2022/05/31 09:49:10;;;;;;;0.00;0.00;;;;;;;;;;5016611;28;20062;-60
2022/05/31 09:51:39;;;;;;;0.00;0.00;;;;;;;;;;5029404;28;20109;-60
2022/05/31 09:57:05;;;;;;;0.00;0.00;;;;;;;;;;5027237;28;45610;-61
2022/05/31 09:59:38;;;;;;;0.57;0.20;;;;;;;;;;5010192;28;20058;-61
2022/05/31 10:02:13;;;;;;;0.57;0.57;;;;;;;;;;5009463;28;20058;-60
2022/05/31 10:04:41;;;;;;;0.00;0.00;;;;;;;;;;5010196;28;20149;-60
2022/05/31 10:07:07;;;;;;;;;;;;;;;;;;5029674;28;20510;-61
2022/05/31 10:09:34;;;;;;;0.10;0.10;;;;;;;;;;5027016;28;43894;-61
2022/05/31 10:12:14;;;;;;;0.00;0.00;;;;;;;;;;5015384;28;20054;-61
2022/05/31 10:14:43;;;;;;;0.00;0.00;;;;;;;;;;5025092;28;20062;-61
2022/05/31 10:17:28;;;;;;;0.10;0.10;;;;;;;;;;5027750;28;20124;-61
2022/05/31 10:20:13;;;;;;;0.25;0.17;;;;;;;;;;5017050;28;20050;-61
2022/05/31 10:23:00;;;;;;;0.08;0.08;;;;;;;;;;5008958;28;20050;-61
2022/05/31 10:25:29;;;;;;;0.00;0.00;;;;;;;;;;5022009;28;20086;-61
2022/05/31 10:27:58;;;;;;;0.10;0.05;;;;;;;;;;5029197;28;20978;-61
2022/05/31 10:30:25;;;;;;;0.00;0.00;;;;;;;;;;5023267;28;20054;-61
2022/05/31 10:32:56;;;;;;;0.00;0.00;;;;;;;;;;5013096;28;20066;-61
2022/05/31 10:35:27;;;;;;;0.00;0.00;;;;;;;;;;5015578;28;20053;-61
2022/05/31 10:38:04;;;;;;;0.00;0.00;;;;;;;;;;5019538;28;20108;-61
2022/05/31 10:40:36;;;;;;;0.28;0.28;;;;;;;;;;5025566;28;20057;-61
2022/05/31 10:43:11;;;;;;;0.00;0.00;;;;;;;;;;5032362;28;20503;-61
2022/05/31 10:45:38;;;;;;;0.00;0.00;;;;;;;;;;5031577;28;20053;-61
2022/05/31 10:48:08;;;;;;;0.00;0.00;;;;;;;;;;5028681;28;20050;-61
2022/05/31 10:50:54;;;;;;;0.00;0.00;;;;;;;;;;5027804;28;20101;-61
2022/05/31 10:53:31;;;;;;;0.22;0.08;;;;;;;;;;5027044;28;20104;-63
2022/05/31 10:56:12;;;;;;;0.35;0.35;;;;;;;;;;5018905;28;20086;-63
2022/05/31 10:58:47;;;;;;;0.08;0.08;;;;;;;;;;5033636;28;20034;-63
2022/05/31 11:01:33;;;;;;;0.00;0.00;;;;;;;;;;5030230;28;20058;-63
2022/05/31 11:03:59;;;;;;;0.00;0.00;;;;;;;;;;5016058;28;20069;-63
2022/05/31 11:06:34;;;;;;;0.00;0.00;;;;;;;;;;5024286;28;20057;-63
2022/05/31 11:11:59;;;;;;;0.00;0.00;;;;;;;;;;5021633;28;20573;-62
2022/05/31 11:14:39;;;;;;;0.10;0.10;;;;;;;;;;5036697;28;20117;-63
2022/05/31 11:17:19;;;;;;;0.30;0.28;;;;;;;;;;5041004;28;20103;-63
2022/05/31 11:19:51;;;;;;;0.00;0.00;;;;;;;;;;5027095;28;20103;-63
2022/05/31 11:22:28;;;;;;;0.00;0.00;;;;;;;;;;5042201;28;20086;-63
2022/05/31 11:25:04;;;;;;;0.00;0.00;;;;;;;;;;5029009;28;20057;-63
2022/05/31 11:27:40;;;;;;;0.00;0.00;;;;;;;;;;5017879;28;21187;-63
2022/05/31 11:30:06;;;;;;;0.10;0.10;;;;;;;;;;5016998;28;20057;-63
2022/05/31 11:32:51;;;;;;;0.00;0.00;;;;;;;;;;5023825;28;20457;-63
2022/05/31 11:35:18;;;;;;;0.00;0.00;;;;;;;;;;5033200;28;20053;-63
2022/05/31 11:37:45;;;;;;;0.22;0.22;;;;;;;;;;5045926;28;20943;-63
2022/05/31 11:40:32;;;;;;;0.08;0.08;;;;;;;;;;5033000;28;20104;-63
2022/05/31 11:43:10;;;;;;;0.43;0.40;;;;;;;;;;5016334;28;20117;-63
2022/05/31 11:45:45;;;;;;;0.00;0.00;;;;;;;;;;5043638;28;20053;-63
2022/05/31 11:48:31;;;;;;;0.00;0.00;;;;;;;;;;5022324;28;20058;-64
2022/05/31 11:51:13;;;;;;;0.00;0.00;;;;;;;;;;5027215;28;20148;-62
2022/05/31 11:53:49;;;;;;;0.00;0.00;;;;;;;;;;5018256;28;20185;-63
2022/05/31 11:56:28;;;;;;;0.00;0.00;;;;;;;;;;5020926;28;20054;-62
2022/05/31 11:59:00;;;;;;;0.00;0.00;;;;;;;;;;5023888;28;20078;-63
2022/05/31 12:01:38;;;;;;;0.10;0.10;;;;;;;;;;5027689;28;20112;-63
2022/05/31 12:04:11;;;;;;;0.00;0.00;;;;;;;;;;5019486;28;20115;-62
2022/05/31 12:06:42;;;;;;;0.85;0.85;;;;;;;;;;5027976;28;20061;-60
2022/05/31 12:09:26;;;;;;;0.03;0.03;;;;;;;;;;5013956;28;20086;-61
2022/05/31 12:12:13;;;;;;;0.13;0.13;;;;;;;;;;5014886;28;20114;-60
2022/05/31 12:14:42;;;;;;;0.00;0.00;;;;;;;;;;5026247;28;20160;-61
2022/05/31 12:17:09;;;;;;;0.00;0.00;;;;;;;;;;5012851;28;20050;-60
2022/05/31 12:19:48;;;;;;;0.00;0.00;;;;;;;;;;5012078;28;20136;-60
2022/05/31 12:22:36;;;;;;;0.00;0.00;;;;;;;;;;5014766;28;20105;-61
2022/05/31 12:25:04;;;;;;;0.03;0.03;;;;;;;;;;5039160;28;20058;-61
2022/05/31 12:27:40;;;;;;;0.00;0.00;;;;;;;;;;5033485;28;20061;-61
2022/05/31 12:30:15;;;;;;;0.00;0.00;;;;;;;;;;5043131;28;20066;-60
2022/05/31 12:32:43;;;;;;;0.00;0.00;;;;;;;;;;5014107;28;20109;-61
2022/05/31 12:35:29;;;;;;;0.03;0.03;;;;;;;;;;5041139;28;20586;-61
2022/05/31 12:38:06;;;;;;;0.00;0.00;;;;;;;;;;5026735;28;20112;-61
2022/05/31 12:40:33;;;;;;;0.20;0.17;;;;;;;;;;5025131;28;20061;-63
2022/05/31 12:43:07;;;;;;;0.00;0.00;;;;;;;;;;5025135;28;20084;-64
2022/05/31 12:45:33;;;;;;;0.20;0.10;;;;;;;;;;5019570;28;20086;-63
2022/05/31 12:48:01;;;;;;;0.00;0.00;;;;;;;;;;5019286;28;20914;-63
2022/05/31 12:50:48;;;;;;;0.00;0.00;;;;;;;;;;5028560;28;20500;-63
2022/05/31 12:53:23;;;;;;;0.00;0.00;;;;;;;;;;5031447;28;20058;-63
2022/05/31 12:55:51;;;;;;;0.00;0.00;;;;;;;;;;5017451;28;20061;-64
2022/05/31 12:58:27;;;;;;;0.00;0.00;;;;;;;;;;5025865;28;20050;-60
2022/05/31 13:00:58;;;;;;;0.00;0.00;;;;;;;;;;5022319;28;20050;-60
2022/05/31 13:03:33;;;;;;;0.00;0.00;;;;;;;;;;5014688;28;20513;-60
2022/05/31 13:06:04;;;;;;;0.00;0.00;;;;;;;;;;5025459;28;20054;-60
2022/05/31 13:08:52;;;;;;;0.00;0.00;;;;;;;;;;5023546;28;20057;-60
2022/05/31 13:20:20;;;;;;;0.00;0.00;;;;;;;;;;5022544;28;20261;-60
2022/05/31 13:22:52;;;;;;;0.00;0.00;;;;;;;;;;5027543;28;20539;-62
2022/05/31 13:25:18;;;;;;;0.00;0.00;;;;;;;;;;5012817;28;20497;-64
2022/05/31 13:27:54;;;;;;;0.00;0.00;;;;;;;;;;5020577;28;20046;-64
2022/05/31 13:30:22;;;;;;;0.00;0.00;;;;;;;;;;5026546;28;20057;-64
2022/05/31 13:32:49;;;;;;;1.55;0.32;;;;;;;;;;5039430;28;20053;-65
2022/05/31 13:35:27;;;;;;;0.00;0.00;;;;;;;;;;5027334;28;20106;-64
2022/05/31 13:38:09;;;;;;;0.82;0.68;;;;;;;;;;5020374;28;20082;-64
2022/05/31 13:40:42;;;;;;;0.00;0.00;;;;;;;;;;5024570;28;20057;-60
2022/05/31 13:43:21;;;;;;;0.20;0.15;;;;;;;;;;5026210;28;20582;-60
2022/05/31 13:45:51;;;;;;;0.10;0.08;;;;;;;;;;5017033;28;20941;-62
2022/05/31 13:48:19;;;;;;;0.00;0.00;;;;;;;;;;5033047;28;20057;-63
2022/05/31 13:50:59;;;;;;;0.73;0.38;;;;;;;;;;5029670;28;20057;-63
2022/05/31 13:53:32;;;;;;;0.00;0.00;;;;;;;;;;5016395;28;20062;-63
2022/05/31 13:55:59;;;;;;;0.00;0.00;;;;;;;;;;5017112;28;20135;-63
2022/05/31 13:58:30;;;;;;;0.00;0.00;;;;;;;;;;5015028;28;20475;-63
2022/05/31 14:00:57;;;;;;;0.00;0.00;;;;;;;;;;5021749;28;20050;-63
2022/05/31 14:03:29;;;;;;;0.00;0.00;;;;;;;;;;5018404;28;20056;-63
2022/05/31 14:06:00;;;;;;;0.00;0.00;;;;;;;;;;5009371;28;20058;-63
2022/05/31 14:08:36;;;;;;;0.38;0.38;;;;;;;;;;5019378;28;20054;-62
2022/05/31 14:11:09;;;;;;;0.00;0.00;;;;;;;;;;5029162;28;20062;-62
2022/05/31 14:13:35;;;;;;;0.00;0.00;;;;;;;;;;5028716;28;20085;-62
2022/05/31 14:16:09;;;;;;;0.10;0.10;;;;;;;;;;5012720;28;20057;-62
2022/05/31 14:18:40;;;;;;;0.55;0.55;;;;;;;;;;5026500;28;20053;-62
2022/05/31 14:21:06;;;;;;;0.00;0.00;;;;;;;;;;5017029;28;20086;-61
2022/05/31 14:23:33;;;;;;;0.00;0.00;;;;;;;;;;5030786;28;20045;-63
2022/05/31 14:26:01;;;;;;;0.00;0.00;;;;;;;;;;5032990;28;20113;-62
2022/05/31 14:28:28;;;;;;;0.00;0.00;;;;;;;;;;5026283;28;20105;-62
2022/05/31 14:30:56;;;;;;;0.00;0.00;;;;;;;;;;5024542;28;20528;-62
2022/05/31 14:33:22;;;;;;;;;;;;;;;;;;5023967;28;20133;-62
2022/05/31 14:35:50;;;;;;;0.00;0.00;;;;;;;;;;5014972;28;44697;-62
2022/05/31 14:38:33;;;;;;;0.00;0.00;;;;;;;;;;5017957;28;20517;-61
2022/05/31 14:41:05;;;;;;;0.00;0.00;;;;;;;;;;5040674;28;20593;-62
2022/05/31 14:43:36;;;;;;;0.00;0.00;;;;;;;;;;5028285;28;20050;-61
2022/05/31 14:46:04;;;;;;;0.10;0.10;;;;;;;;;;5024154;28;20058;-62
2022/05/31 14:48:36;;;;;;;0.00;0.00;;;;;;;;;;5024348;28;20137;-62
2022/05/31 14:51:14;;;;;;;0.00;0.00;;;;;;;;;;5025255;28;20139;-61
2022/05/31 14:53:42;;;;;;;0.05;0.03;;;;;;;;;;5026697;28;20103;-62
2022/05/31 14:56:27;;;;;;;0.00;0.00;;;;;;;;;;5021074;28;20054;-62
2022/05/31 14:58:57;;;;;;;0.10;0.10;;;;;;;;;;5026139;28;20153;-62
2022/05/31 15:01:29;;;;;;;0.00;0.00;;;;;;;;;;5044171;28;20049;-62
2022/05/31 15:03:57;;;;;;;0.00;0.00;;;;;;;;;;5026581;28;20069;-62
2022/05/31 15:06:27;;;;;;;0.00;0.00;;;;;;;;;;5026165;28;20600;-61
2022/05/31 15:09:21;;;;;;;0.00;0.00;;;;;;;;;;5016896;28;20058;-62
2022/05/31 15:20:17;;;;;;;0.10;0.10;;;;;;;;;;5014386;28;20577;-62
2022/05/31 15:22:45;;;;;;;0.00;0.00;;;;;;;;;;5021260;28;20497;-62
2022/05/31 15:25:16;;;;;;;0.00;0.00;;;;;;;;;;5042547;28;20103;-62
2022/05/31 15:27:43;;;;;;;0.00;0.00;;;;;;;;;;5035698;28;20058;-62
2022/05/31 15:30:10;;;;;;;0.03;0.03;;;;;;;;;;5035134;28;20061;-62
2022/05/31 15:32:38;;;;;;;0.15;0.13;;;;;;;;;;5025797;28;20062;-60
2022/05/31 15:35:04;;;;;;;0.00;0.00;;;;;;;;;;5033253;28;20050;-60
2022/05/31 15:37:47;;;;;;;0.00;0.00;;;;;;;;;;5043495;28;20110;-63
2022/05/31 15:40:15;;;;;;;0.00;0.00;;;;;;;;;;5028958;28;20113;-62
2022/05/31 15:42:42;;;;;;;0.00;0.00;;;;;;;;;;5028490;28;20729;-63